Latest Weather Observations for Samuel Hill

IDQ60801

Issued at 11:22 pm EST Wednesday 26 September 2018 (issued every 10 minutes, with the page automatically refreshed every 10 minutes)

About weather observations | Map of weather stations | Latest weather observations for QLD | Other Formats
Station Details ID: 033308 Name: SAMUEL HILL AERO Lat: -22.74 Lon: 150.66 Height: 31.0 m
Data from the previous 72 hours. | See also: Recent months at Samuel Hill
Date/Time
EST
Temp
°C
App
Temp
°C
Dew
Point
°C
Rel
Hum
%
Delta-T
°C
Wind Press
QNH
hPa
Press
MSL
hPa
Rain since
9am
mm
Dir  Spd
km/h
Gust
km/h
Spd
kts
Gust
kts
26/11:00pm 12.8 12.4 11.2 90 0.8 WSW 4 7 2 4 1020.3 1020.2 0.0
26/10:30pm 13.1 13.6 11.5 90 0.8 CALM 0 0 0 0 1020.2 1020.1 0.0
26/10:00pm 13.0 13.4 11.2 89 0.9 CALM 0 0 0 0 1020.0 1019.9 0.0
26/09:30pm 13.7 14.3 11.8 88 1.0 CALM 0 0 0 0 1020.0 1019.9 0.0
26/09:00pm 13.9 14.5 11.9 88 1.1 CALM 0 0 0 0 1019.6 1019.5 0.0
26/08:30pm 14.4 15.1 12.1 86 1.2 CALM 0 0 0 0 1019.3 1019.2 0.0
26/08:21pm 14.8 15.6 12.7 87 1.2 CALM 0 0 0 0 1019.2 1019.1 0.0
26/08:00pm 15.0 15.8 12.7 86 1.3 CALM 0 0 0 0 1019.0 1018.9 0.0
26/07:59pm 15.0 15.8 12.7 86 1.3 CALM 0 0 0 0 1019.0 1018.9 0.0
26/07:30pm 16.0 16.9 12.9 82 1.7 CALM 0 0 0 0 1019.0 1018.9 0.0
26/07:00pm 17.1 18.2 13.4 79 2.1 CALM 0 0 0 0 1018.7 1018.6 0.0
26/06:30pm 18.9 19.1 14.2 74 2.7 NE 6 7 3 4 1018.3 1018.2 0.0
26/06:00pm 20.2 20.4 14.6 70 3.3 NE 7 11 4 6 1018.0 1017.9 0.0
26/05:30pm 21.3 21.1 14.7 66 3.9 NE 9 15 5 8 1017.7 1017.6 0.0
26/05:00pm 22.1 20.3 14.5 62 4.5 NE 17 24 9 13 1017.3 1017.2 0.0
26/04:30pm 22.8 21.1 14.6 60 4.8 NE 17 24 9 13 1017.1 1017.0 0.0
26/04:00pm 23.5 21.7 14.5 57 5.3 ENE 17 28 9 15 1017.1 1017.0 0.0
26/03:30pm 23.7 21.4 14.7 57 5.3 E 20 30 11 16 1017.3 1017.2 0.0
26/03:00pm 23.9 21.7 14.3 55 5.7 NE 19 28 10 15 1017.5 1017.4 0.0
26/02:30pm 24.4 21.7 13.6 51 6.3 ENE 20 30 11 16 1017.8 1017.7 0.0
26/02:00pm 24.3 21.8 14.1 53 6.0 ENE 20 32 11 17 1018.1 1018.0 0.0
26/01:30pm 25.0 23.0 13.9 50 6.5 ENE 17 26 9 14 1018.5 1018.4 0.0
26/01:00pm 24.5 22.0 13.4 50 6.5 ENE 19 28 10 15 1018.7 1018.6 0.0
26/12:30pm 25.7 23.5 14.5 50 6.7 ENE 19 32 10 17 1019.0 1018.9 0.0
26/12:00pm 25.6 23.5 13.5 47 7.1 ENE 17 28 9 15 1019.5 1019.4 0.0
26/11:30am 24.8 22.5 13.0 47 6.8 NE 17 28 9 15 1019.9 1019.8 0.0
26/11:00am 24.5 21.9 13.1 49 6.6 E 19 28 10 15 1020.3 1020.2 0.0
26/10:30am 24.3 22.9 14.4 54 5.9 E 15 22 8 12 1020.7 1020.6 0.0
26/10:00am 24.7 23.3 14.5 53 6.0 ENE 15 24 8 13 1020.7 1020.6 0.0
26/09:30am 23.2 22.0 15.0 60 4.9 ENE 15 22 8 12 1020.8 1020.7 0.0
26/09:00am 23.8 22.5 14.8 57 5.3 ENE 15 24 8 13 1020.7 1020.6 -
26/08:30am 22.9 22.3 14.7 60 4.9 ESE 11 19 6 10 1020.6 1020.5 -
26/08:00am 21.0 21.1 15.5 71 3.3 E 9 15 5 8 1020.5 1020.4 -
26/07:30am 20.0 21.3 16.2 79 2.3 SSE 4 7 2 4 1020.1 1020.0 -
26/07:00am 16.3 18.0 15.2 93 0.6 CALM 0 0 0 0 1019.9 1019.8 -
26/06:30am 13.6 14.4 12.7 94 0.5 CALM 0 0 0 0 1019.5 1019.4 -
26/06:00am 11.9 11.0 10.6 92 0.7 W 6 6 3 3 1019.2 1019.1 -
26/05:30am 12.6 13.1 11.7 94 0.5 CALM 0 0 0 0 1018.9 1018.8 -
26/05:00am 11.8 11.6 10.4 91 0.7 WSW 2 6 1 3 1018.6 1018.5 -
26/04:30am 12.3 11.5 11.0 92 0.7 WSW 6 7 3 4 1018.4 1018.3 -
26/04:00am 12.9 12.2 12.0 94 0.5 WSW 7 9 4 5 1018.3 1018.2 -
26/03:30am 12.3 12.6 11.0 92 0.7 CALM 0 0 0 0 1018.2 1018.1 -
26/03:00am 12.5 12.9 11.1 91 0.7 CALM 0 0 0 0 1018.5 1018.4 -
26/02:30am 13.1 - 11.8 92 0.7 - - - - - 1018.9 1018.8 -
26/02:00am 12.9 13.3 11.3 90 0.8 CALM 0 0 0 0 1019.4 1019.3 0.0
26/01:30am 13.7 14.4 12.3 91 0.8 CALM 0 0 0 0 1019.8 1019.7 0.0
26/01:00am 14.3 13.9 13.0 92 0.7 SSE 7 9 4 5 1020.1 1020.0 0.0
26/12:30am 14.3 15.3 13.2 93 0.6 CALM 0 0 0 0 1020.3 1020.2 0.0
26/12:00am 13.8 13.4 12.4 91 0.8 S 6 7 3 4 1020.6 1020.5 0.0
 
Date/Time
EST
Temp
°C
App
Temp
°C
Dew
Point
°C
Rel
Hum
%
Delta-T
°C
Wind Press
QNH
hPa
Press
MSL
hPa
Rain since
9am
mm
Dir  Spd
km/h
Gust
km/h
Spd
kts
Gust
kts
25/11:30pm 13.9 14.7 12.5 91 0.8 CALM 0 0 0 0 1020.8 1020.7 0.0
25/11:00pm 14.6 15.6 13.3 92 0.7 CALM 0 0 0 0 1020.9 1020.8 0.0
25/10:30pm 14.3 14.5 13.0 92 0.7 SE 4 9 2 5 1020.9 1020.8 0.0
25/10:00pm 13.9 14.6 12.1 89 1.0 CALM 0 0 0 0 1020.8 1020.7 0.0
25/09:30pm 14.6 15.4 12.6 88 1.1 CALM 0 0 0 0 1020.8 1020.7 0.0
25/09:00pm 15.5 16.7 13.7 89 1.0 CALM 0 6 0 3 1020.7 1020.6 0.0
25/08:30pm 16.3 16.6 14.5 89 1.0 W 6 11 3 6 1020.4 1020.3 0.0
25/08:00pm 16.4 16.5 13.9 85 1.4 ESE 6 7 3 4 1020.3 1020.2 0.0
25/07:30pm 17.8 18.2 14.7 82 1.8 SSE 6 7 3 4 1020.1 1020.0 0.0
25/07:00pm 18.4 18.5 14.5 78 2.2 ESE 7 9 4 5 1019.7 1019.6 0.0
25/06:30pm 19.2 19.4 14.7 75 2.6 ESE 7 9 4 5 1019.6 1019.5 0.0
25/06:00pm 20.1 19.6 14.9 72 3.0 ESE 11 15 6 8 1019.2 1019.1 0.0
25/05:30pm 21.0 19.4 14.9 68 3.6 ESE 17 26 9 14 1018.9 1018.8 0.0
25/05:00pm 21.5 20.0 14.2 63 4.3 ESE 15 24 8 13 1018.6 1018.5 0.0
25/04:30pm 22.2 20.7 14.3 61 4.6 ESE 15 22 8 12 1018.5 1018.4 0.0
25/04:00pm 23.0 21.5 14.3 58 5.1 ESE 15 20 8 11 1018.5 1018.4 0.0
25/03:30pm 23.3 21.4 15.1 60 4.9 ESE 19 32 10 17 1018.5 1018.4 0.0
25/03:00pm 23.8 21.6 14.5 56 5.5 ESE 19 30 10 16 1018.6 1018.5 0.0
25/02:30pm 23.9 21.2 13.4 51 6.1 ESE 20 28 11 15 1018.9 1018.8 0.0
25/02:00pm 24.3 22.0 14.7 55 5.7 SE 20 30 11 16 1019.3 1019.2 0.0
25/01:30pm 23.0 19.9 13.5 55 5.5 SE 22 32 12 17 1019.3 1019.2 0.0
25/01:00pm 22.5 19.1 13.8 58 5.1 ESE 24 37 13 20 1019.8 1019.7 0.0
25/12:30pm 23.0 20.9 15.1 61 4.7 ESE 20 32 11 17 1020.1 1020.0 0.0
25/12:00pm 23.8 21.4 14.5 56 5.5 ESE 20 32 11 17 1020.5 1020.4 0.0
25/11:30am 22.9 20.3 13.7 56 5.4 ESE 20 32 11 17 1021.1 1021.0 0.0
25/11:00am 23.8 21.3 13.6 52 5.9 ESE 19 32 10 17 1021.5 1021.4 0.0
25/10:30am 23.3 21.2 14.8 59 5.1 SE 19 32 10 17 1021.7 1021.6 0.0
25/10:00am 23.3 21.5 15.4 61 4.7 SE 19 30 10 16 1021.9 1021.8 0.0
25/09:30am 24.4 22.3 15.1 56 5.6 ESE 20 32 11 17 1021.8 1021.7 0.0
25/09:00am 23.0 21.3 14.6 59 5.0 ESE 17 26 9 14 1021.7 1021.6 0.0
25/08:30am 22.0 19.6 14.4 62 4.5 ESE 20 28 11 15 1021.6 1021.5 0.0
25/08:00am 21.5 19.4 14.6 65 4.0 SE 19 24 10 13 1021.2 1021.1 0.0
25/07:30am 20.7 20.7 15.3 71 3.2 SE 9 15 5 8 1020.8 1020.7 0.0
25/07:00am 17.5 17.9 16.4 93 0.7 SSE 9 11 5 6 1020.5 1020.4 0.0
25/06:30am 12.9 13.6 12.1 95 0.4 CALM 0 0 0 0 1020.4 1020.3 0.0
25/06:00am 11.3 11.4 10.2 93 0.6 CALM 0 0 0 0 1020.1 1020.0 0.0
25/05:30am 11.0 11.0 9.8 92 0.6 CALM 0 0 0 0 1019.8 1019.7 0.0
25/05:00am 10.9 10.8 9.5 91 0.7 CALM 0 6 0 3 1019.5 1019.4 0.0
25/04:30am 11.1 11.1 9.9 92 0.6 CALM 0 2 0 1 1019.3 1019.2 0.0
25/04:00am 11.2 11.3 10.0 92 0.6 CALM 0 0 0 0 1019.1 1019.0 0.0
25/03:30am 10.9 10.8 9.5 91 0.7 CALM 0 0 0 0 1019.1 1019.0 0.0
25/03:00am 11.0 10.9 9.4 90 0.8 CALM 0 0 0 0 1019.1 1019.0 0.0
25/02:30am 11.3 11.2 9.6 89 0.9 CALM 0 0 0 0 1019.5 1019.4 0.0
25/02:00am 11.6 11.6 9.9 89 0.9 CALM 0 0 0 0 1019.6 1019.5 0.0
25/01:30am 12.2 12.4 10.6 90 0.8 CALM 0 0 0 0 1020.0 1019.9 0.0
25/01:00am 12.5 11.6 10.6 88 1.0 S 6 9 3 5 1020.2 1020.1 0.0
25/12:30am 13.2 13.3 11.4 89 1.0 S 2 7 1 4 1020.7 1020.6 0.0
25/12:00am 13.2 12.3 10.6 84 1.4 SSE 6 9 3 5 1020.8 1020.7 0.0
 
Date/Time
EST
Temp
°C
App
Temp
°C
Dew
Point
°C
Rel
Hum
%
Delta-T
°C
Wind Press
QNH
hPa
Press
MSL
hPa
Rain since
9am
mm
Dir  Spd
km/h
Gust
km/h
Spd
kts
Gust
kts
24/11:30pm 14.7 13.8 11.3 80 1.8 SSE 7 9 4 5 1020.8 1020.7 0.0
24/11:00pm 16.4 16.0 12.9 80 1.9 SSE 7 11 4 6 1020.9 1020.8 0.0
24/10:30pm 15.4 14.5 11.2 76 2.2 SE 7 9 4 5 1021.0 1020.9 0.0
24/10:00pm 17.5 16.7 13.0 75 2.5 SE 9 11 5 6 1021.2 1021.1 0.0
24/09:30pm 17.2 16.3 12.7 75 2.5 SE 9 11 5 6 1021.3 1021.2 0.0
24/09:00pm 17.8 17.0 12.9 73 2.7 SSE 9 13 5 7 1021.3 1021.2 0.0
24/08:30pm 18.5 17.7 12.9 70 3.1 SE 9 15 5 8 1020.9 1020.8 0.0
24/08:00pm 18.7 18.1 13.6 72 2.9 SE 9 13 5 7 1020.5 1020.4 0.0
24/07:30pm 18.9 18.0 13.7 72 3.0 SE 11 17 6 9 1020.0 1019.9 0.0
24/07:00pm 19.5 18.1 13.4 68 3.5 ESE 13 19 7 10 1019.9 1019.8 0.0
24/06:30pm 19.5 18.1 13.4 68 3.5 ESE 13 19 7 10 1019.6 1019.5 0.0
24/06:00pm 20.0 17.9 13.5 66 3.7 ESE 17 24 9 13 1019.4 1019.3 0.0
24/05:30pm 20.8 18.2 13.3 62 4.3 ESE 19 28 10 15 1018.9 1018.8 0.0
24/05:00pm 21.4 18.6 13.1 59 4.7 SE 20 30 11 16 1019.1 1019.0 0.0
24/04:30pm 22.2 19.1 13.3 57 5.1 SE 22 33 12 18 1018.9 1018.8 0.0
24/04:00pm 22.3 18.8 12.3 53 5.7 SE 22 35 12 19 1018.8 1018.7 0.0
24/03:30pm 23.3 21.1 13.2 53 5.8 SE 17 28 9 15 1018.8 1018.7 0.0
24/03:00pm 23.5 20.7 12.5 50 6.3 ESE 19 33 10 18 1019.0 1018.9 0.0
24/02:30pm 23.3 20.4 12.9 52 6.0 ESE 20 33 11 18 1019.2 1019.1 0.0
24/02:00pm 24.0 20.8 13.2 50 6.3 ESE 22 33 12 18 1019.4 1019.3 0.0
24/01:30pm 23.7 20.9 14.4 56 5.5 SE 22 39 12 21 1019.4 1019.3 0.0
24/01:00pm 25.0 22.4 13.9 50 6.5 ESE 20 35 11 19 1019.7 1019.6 0.0
24/12:30pm 23.5 20.7 12.5 50 6.3 SE 19 32 10 17 1020.1 1020.0 0.0
24/12:00pm 24.4 21.6 13.3 50 6.4 SE 20 32 11 17 1020.4 1020.3 0.0
24/11:30am 24.0 21.3 13.5 52 6.1 SE 20 33 11 18 1020.7 1020.6 0.0
24/11:00am 24.4 21.1 12.7 48 6.7 ESE 22 33 12 18 1020.9 1020.8 0.0
24/10:30am 23.3 20.3 12.6 51 6.1 ESE 20 32 11 17 1020.9 1020.8 0.0
24/10:00am 22.7 20.5 13.2 55 5.5 ESE 17 30 9 16 1021.1 1021.0 0.0
24/09:30am 24.0 22.2 13.2 50 6.3 ESE 15 28 8 15 1021.2 1021.1 0.0
24/09:00am 22.2 19.5 13.0 56 5.3 ESE 19 28 10 15 1021.1 1021.0 0.0
24/08:30am 21.5 19.5 13.9 62 4.4 SE 17 24 9 13 1020.9 1020.8 0.0
24/08:00am 19.5 20.0 15.6 78 2.3 SE 7 9 4 5 1020.9 1020.8 0.0
24/07:30am 17.6 17.8 14.7 83 1.7 S 7 11 4 6 1020.7 1020.6 0.0
24/07:00am 14.4 15.4 13.3 93 0.6 CALM 0 0 0 0 1020.3 1020.2 0.0
24/06:30am 11.3 11.5 10.4 94 0.5 CALM 0 0 0 0 1020.1 1020.0 0.0
24/06:00am 9.6 9.2 8.4 92 0.6 CALM 0 0 0 0 1020.0 1019.9 0.0
24/05:30am 9.5 9.1 8.3 92 0.6 CALM 0 0 0 0 1019.7 1019.6 0.0
24/05:00am 9.7 9.4 8.5 92 0.6 CALM 0 0 0 0 1019.5 1019.4 0.0
24/04:30am 9.9 9.6 8.7 92 0.6 CALM 0 0 0 0 1019.4 1019.3 0.0
24/04:00am 10.1 9.9 8.9 92 0.6 CALM 0 0 0 0 1019.2 1019.1 0.0
24/03:30am 10.2 10.0 9.0 92 0.6 CALM 0 0 0 0 1019.3 1019.2 0.0
24/03:00am 10.5 10.4 9.3 92 0.6 CALM 0 0 0 0 1019.4 1019.3 0.0
24/02:30am 10.3 10.1 9.1 92 0.6 CALM 0 0 0 0 1019.5 1019.4 0.0
24/02:00am 10.4 10.2 9.0 91 0.7 CALM 0 0 0 0 1019.7 1019.6 0.0
24/01:30am 10.6 10.4 9.2 91 0.7 CALM 0 0 0 0 1020.1 1020.0 0.0
24/01:00am 10.8 10.7 9.4 91 0.7 CALM 0 0 0 0 1020.5 1020.4 0.0
24/12:30am 10.8 10.6 9.2 90 0.8 CALM 0 0 0 0 1020.9 1020.8 0.0
24/12:00am 11.0 10.9 9.4 90 0.8 CALM 0 0 0 0 1021.0 1020.9 0.0
 
Date/Time
EST
Temp
°C
App
Temp
°C
Dew
Point
°C
Rel
Hum
%
Delta-T
°C
Wind Press
QNH
hPa
Press
MSL
hPa
Rain since
9am
mm
Dir  Spd
km/h
Gust
km/h
Spd
kts
Gust
kts
23/11:30pm 11.4 11.4 9.8 90 0.8 CALM 0 0 0 0 1021.2 1021.1 0.0

Other Formats:

Comma delimited format used in spreadsheet applications
http://www.bom.gov.au/fwo/IDQ60801/IDQ60801.94370.axf

JavaScript Object Notation format (JSON) in row-major order
http://www.bom.gov.au/fwo/IDQ60801/IDQ60801.94370.json